Portada
METAR-TAF:

METAR-TAF

Aeroports :

Ranchi, Índia

latitud: 23-18-51N, longitud: 85-19-18E, altitud: 646 m

Observació

L'informe es va fer fa 28 minuts, a les 07:00 UTC
Vent 4 kt del Nord/Nord-Est
Temperatura 25°C
Humitat 47%
Pressió 1020 hPa
Visibilitat: 6000 m

METAR: VERC 220700Z 02004KT 6000 NSC 25/13 Q1020 NOSIG

Hora: 12:58 (07:28 UTC)

Pronòstic

L'informe es va fer fa 2 hores i 28 minuts, a les 05:00 UTC
Pronòstic vàlid del 22 a les 06 UTC al 22 a les 15 UTC
Vent 5 kt del Oest
Visibilitat: 6000 m
Evolucionant progressivament
l' 22 a les 12 UTC al 22 a les 14 UTC
Vent kt del Nord
Visibilitat: 4500 m
calitja

TAF: VERC 220500Z 2206/2215 27005KT 6000 NSC BECMG 2212/2214 00000KT 4500 HZ

Observacions i pronòstics meteorològics de més de 4000 aeroports (METAR i TAF).

Les estacions disponibles són els punts grocs i vermells al mapa.

Posi el ratolí al punt desitjat per veure el nom de l'estació.

Feu clic per veure les observacions i els pronòstics meteorològics.

Per canviar el mapa: feu clic els botons verds amb una creu de color negre per apropar; al botó verd amb un guió per allunyar la imatge; o en les fletxes verdes per a mapes adjacents.


METAR-TAF: